アロフィ の空港の天気 - METARとTAF

ニウエ国際空港 ( NIUE / IUE ) - ニウエ アロフィ
飛行場実況気象(Metar)
観測時間07/15 00:00 NUT (07/15 11:00 UTC)
風向・風速南東 2m/s
視程-
天気現象
-
気温20℃
湿度78%
気圧1015hPa
METARNIUE 151100Z AUTO 13004KT //// // ///////// 20/16 Q1015.0
過去の天気等 Google飛行場航空写真 Wunderground天気予報

過去48時間のMETAR

飛行場予報(TAF)
データがありません